Letter Gap, West Virginia
Current Conditions -  °F | °C
As of 5:35 PM on Tuesday 21 Oct 2014 (Local Time) from KW22 Reporting Station
Drizzle Drizzle  
Wind Chill: 43°   Ceiling: 1400
Heat Index: 46°   Visibility: 5mi
Dew Point: 46°   Wind: 7mph
Humidity: 100%   Direction: 310°NW
Pressure: 29.95"   Gusts: 13mph
Location:  38.8918°N, 80.9566°W
Report Text: KW22 212135Z AUTO 31006G11KT 5SM -DZ SCT008 BKN014 OVC042 08/08 A2995 RMK AO2
Loading
Personal Weather Stations






























Interactive Weather Map
Tropical Storm Tracking
New forecast layout! Learn more

10-Day Weather Forecast

Advertisements
Track Severe Weather on mobile